createdAt,value
2023-03-17T00:02:25.536Z,52.11
2023-03-17T00:04:53.234Z,52.74
2023-03-17T00:07:20.497Z,52.06
2023-03-17T00:09:47.756Z,51.73
2023-03-17T00:12:15.393Z,51.95
2023-03-17T00:14:44.447Z,52.15
2023-03-17T00:17:14.069Z,51.42
2023-03-17T00:19:43.122Z,51.72
2023-03-17T00:22:13.548Z,51.93
2023-03-17T00:24:40.861Z,51.81
2023-03-17T00:27:12.122Z,51.65
2023-03-17T00:29:39.882Z,51.81
2023-03-17T00:32:07.734Z,51.97
2023-03-17T00:34:35.205Z,51.81
2023-03-17T00:37:04.178Z,51.65
2023-03-17T00:39:31.461Z,51.73
2023-03-17T00:41:59.620Z,51.74
2023-03-17T00:44:26.866Z,51.77
2023-03-17T00:46:54.889Z,52.20
2023-03-17T00:49:23.578Z,51.89
2023-03-17T00:51:51.555Z,51.48
2023-03-17T00:54:20.941Z,51.75
2023-03-17T00:56:49.154Z,51.44
2023-03-17T00:59:20.413Z,51.26
2023-03-17T01:01:47.876Z,51.52
2023-03-17T01:04:15.618Z,51.34
2023-03-17T01:06:43.139Z,51.62
2023-03-17T01:09:12.966Z,51.46
2023-03-17T01:11:42.059Z,51.95
2023-03-17T01:14:09.941Z,52.04
2023-03-17T01:16:37.295Z,51.79
2023-03-17T01:19:04.664Z,51.69
2023-03-17T01:21:32.114Z,51.43
2023-03-17T01:24:00.323Z,51.37
2023-03-17T01:26:27.611Z,51.45
2023-03-17T01:28:56.472Z,51.25
2023-03-17T01:31:24.255Z,50.92
2023-03-17T01:33:52.723Z,51.53
2023-03-17T01:36:20.580Z,50.90
2023-03-17T01:38:48.511Z,51.22
2023-03-17T01:41:15.774Z,50.68
2023-03-17T01:43:43.896Z,50.97
2023-03-17T01:46:25.105Z,50.68
2023-03-17T01:48:57.346Z,50.32
2023-03-17T01:51:27.463Z,50.72
2023-03-17T01:53:55.028Z,49.96
2023-03-17T01:56:23.163Z,50.07
2023-03-17T01:58:53.270Z,50.26
2023-03-17T02:01:25.123Z,49.60
2023-03-17T02:03:53.478Z,49.80
2023-03-17T02:06:20.779Z,50.22
2023-03-17T02:08:48.031Z,49.90
2023-03-17T02:11:15.356Z,49.69
2023-03-17T02:13:44.646Z,49.43
2023-03-17T02:16:15.754Z,49.35
2023-03-17T02:18:44.842Z,49.33
2023-03-17T02:21:28.967Z,49.04
2023-03-17T02:23:56.644Z,48.70
2023-03-17T02:26:25.937Z,49.33
2023-03-17T02:28:53.692Z,49.14
2023-03-17T02:31:21.840Z,49.01
2023-03-17T02:33:49.131Z,48.82
2023-03-17T02:36:16.476Z,48.94
2023-03-17T02:38:45.065Z,48.81
2023-03-17T02:41:12.535Z,48.63
2023-03-17T02:43:41.303Z,48.38
2023-03-17T02:46:08.683Z,47.99
2023-03-17T02:48:36.568Z,47.71
2023-03-17T02:51:04.255Z,48.19
2023-03-17T02:53:32.142Z,47.72
2023-03-17T02:56:00.785Z,47.96
2023-03-17T02:58:28.020Z,48.09
2023-03-17T03:00:56.094Z,47.55
2023-03-17T03:03:23.340Z,47.73
2023-03-17T03:05:50.914Z,47.81
2023-03-17T03:08:18.169Z,48.12
2023-03-17T03:10:45.704Z,47.81
2023-03-17T03:13:14.301Z,47.54
2023-03-17T03:15:42.234Z,47.29
2023-03-17T03:18:09.696Z,47.60
2023-03-17T03:20:37.110Z,47.38
2023-03-17T03:23:04.650Z,47.65
2023-03-17T03:25:32.102Z,47.88
2023-03-17T03:27:59.357Z,47.85
2023-03-17T03:30:28.009Z,47.87
2023-03-17T03:32:55.431Z,48.00
2023-03-17T03:35:22.715Z,48.05
2023-03-17T03:37:49.968Z,47.77
2023-03-17T03:40:17.654Z,48.28
2023-03-17T03:42:44.949Z,48.26
2023-03-17T03:45:12.299Z,48.57
2023-03-17T03:47:40.932Z,48.44
2023-03-17T03:50:08.619Z,48.21
2023-03-17T03:52:36.056Z,48.57
2023-03-17T03:55:03.363Z,48.99
2023-03-17T03:57:30.655Z,48.11
2023-03-17T03:59:58.198Z,48.97
2023-03-17T04:02:25.554Z,48.88
2023-03-17T04:04:54.615Z,48.76
2023-03-17T04:07:22.177Z,48.46
2023-03-17T04:09:49.660Z,48.58
2023-03-17T04:12:17.637Z,48.87
2023-03-17T04:14:45.700Z,48.85
2023-03-17T04:17:13.947Z,49.09
2023-03-17T04:19:41.448Z,48.47
2023-03-17T04:22:11.978Z,48.73
2023-03-17T04:24:39.243Z,48.80
2023-03-17T04:27:06.705Z,48.82
2023-03-17T04:29:34.351Z,49.10
2023-03-17T04:32:02.239Z,48.87
2023-03-17T04:34:29.570Z,49.34
2023-03-17T04:36:56.888Z,49.41
2023-03-17T04:39:25.633Z,49.11
2023-03-17T04:41:52.893Z,49.23
2023-03-17T04:44:20.167Z,49.29
2023-03-17T04:46:47.568Z,49.38
2023-03-17T04:49:14.894Z,49.49
2023-03-17T04:51:42.181Z,49.62
2023-03-17T04:54:09.442Z,49.60
2023-03-17T04:56:38.206Z,50.05
2023-03-17T04:59:05.638Z,49.94
2023-03-17T05:01:32.985Z,50.43
2023-03-17T05:04:00.239Z,50.31
2023-03-17T05:06:27.528Z,50.34
2023-03-17T05:08:54.788Z,50.51
2023-03-17T05:11:22.080Z,50.56
2023-03-17T05:13:50.947Z,50.21
2023-03-17T05:16:18.279Z,50.70
2023-03-17T05:18:45.589Z,50.84
2023-03-17T05:21:13.201Z,50.46
2023-03-17T05:23:41.742Z,50.04
2023-03-17T05:26:09.126Z,50.83
2023-03-17T05:28:36.460Z,50.49
2023-03-17T05:31:05.326Z,50.54
2023-03-17T05:33:32.979Z,50.74
2023-03-17T05:36:00.275Z,50.44
2023-03-17T05:38:27.608Z,50.37
2023-03-17T05:40:55.178Z,50.21
2023-03-17T05:43:22.849Z,50.27
2023-03-17T05:45:50.532Z,50.40
2023-03-17T05:48:19.224Z,50.37
2023-03-17T05:50:46.544Z,50.97
2023-03-17T05:53:13.833Z,50.04
2023-03-17T05:55:41.407Z,50.11
2023-03-17T05:58:09.476Z,50.33
2023-03-17T06:00:37.710Z,50.11
2023-03-17T06:03:05.206Z,49.62
2023-03-17T06:05:33.831Z,50.10
2023-03-17T06:08:01.360Z,49.99
2023-03-17T06:10:29.364Z,50.12
2023-03-17T06:12:57.008Z,50.29
2023-03-17T06:15:24.307Z,50.99
2023-03-17T06:17:51.693Z,50.20
2023-03-17T06:20:19.748Z,50.09
2023-03-17T06:23:03.502Z,50.07
2023-03-17T06:25:32.436Z,50.41
2023-03-17T06:28:02.376Z,50.04
2023-03-17T06:30:29.993Z,49.81
2023-03-17T06:32:57.334Z,49.60
2023-03-17T06:35:25.142Z,50.24
2023-03-17T06:37:54.054Z,48.99
2023-03-17T06:40:21.364Z,49.09
2023-03-17T06:42:48.737Z,48.76
2023-03-17T06:45:16.259Z,48.57
2023-03-17T06:47:43.646Z,47.92
2023-03-17T06:50:12.113Z,48.11
2023-03-17T06:52:39.479Z,47.64
2023-03-17T06:55:08.924Z,47.96
2023-03-17T06:57:37.249Z,47.27
2023-03-17T07:00:06.326Z,47.26
2023-03-17T07:02:34.382Z,47.14
2023-03-17T07:05:02.264Z,46.36
2023-03-17T07:07:29.654Z,45.73
2023-03-17T07:09:57.330Z,46.20
2023-03-17T07:12:25.948Z,46.05
2023-03-17T07:14:53.222Z,46.10
2023-03-17T07:17:20.552Z,45.43
2023-03-17T07:19:47.816Z,45.43
2023-03-17T07:22:15.124Z,44.81
2023-03-17T07:24:43.271Z,44.22
2023-03-17T07:27:11.015Z,44.02
2023-03-17T07:29:39.645Z,43.88
2023-03-17T07:32:08.285Z,43.40
2023-03-17T07:34:36.516Z,43.21
2023-03-17T07:37:04.062Z,43.84
2023-03-17T07:39:31.299Z,43.51
2023-03-17T07:41:58.572Z,43.64
2023-03-17T07:44:27.474Z,43.88
2023-03-17T07:46:56.473Z,44.00
2023-03-17T07:49:39.906Z,44.41
2023-03-17T07:52:08.249Z,44.69
2023-03-17T07:54:35.660Z,44.65
2023-03-17T07:57:03.045Z,44.52
2023-03-17T07:59:31.091Z,44.54
2023-03-17T08:02:01.302Z,44.61
2023-03-17T08:04:28.733Z,44.71
2023-03-17T08:06:57.181Z,44.62
2023-03-17T08:09:24.532Z,44.37
2023-03-17T08:11:51.890Z,44.37
2023-03-17T08:14:19.571Z,44.02
2023-03-17T08:16:47.188Z,43.67
2023-03-17T08:19:16.244Z,42.71
2023-03-17T08:21:43.601Z,43.49
2023-03-17T08:24:11.819Z,42.31
2023-03-17T08:26:39.097Z,42.30
2023-03-17T08:29:07.954Z,41.83
2023-03-17T08:31:35.742Z,42.00
2023-03-17T08:34:04.376Z,41.66
2023-03-17T08:36:33.021Z,41.54
2023-03-17T08:39:00.635Z,41.06
2023-03-17T08:41:28.529Z,41.46
2023-03-17T08:43:56.731Z,41.56
2023-03-17T08:46:25.804Z,41.23
2023-03-17T08:48:55.071Z,41.35
2023-03-17T08:51:24.609Z,40.83
2023-03-17T08:53:53.544Z,41.22
2023-03-17T08:56:21.142Z,40.40
2023-03-17T08:58:50.693Z,40.18
2023-03-17T09:01:18.587Z,40.45
2023-03-17T09:03:46.737Z,40.20
2023-03-17T09:06:14.631Z,40.74
2023-03-17T09:08:44.984Z,40.27
2023-03-17T09:11:16.436Z,39.98
2023-03-17T09:13:44.242Z,39.55
2023-03-17T09:16:11.648Z,39.46
2023-03-17T09:18:39.426Z,39.66
2023-03-17T09:21:06.956Z,39.35
2023-03-17T09:23:34.250Z,38.92
2023-03-17T09:26:02.202Z,38.65
2023-03-17T09:28:30.794Z,38.70
2023-03-17T09:30:58.801Z,38.42
2023-03-17T09:33:27.179Z,38.23
2023-03-17T09:35:56.922Z,38.36
2023-03-17T09:38:24.782Z,37.53
2023-03-17T09:40:54.785Z,37.64
2023-03-17T09:43:27.612Z,37.12
2023-03-17T09:45:56.934Z,37.36
2023-03-17T09:48:37.282Z,37.46
2023-03-17T09:51:06.587Z,36.91
2023-03-17T09:53:35.953Z,36.93
2023-03-17T09:56:07.508Z,36.36
2023-03-17T09:58:36.348Z,35.90
2023-03-17T10:01:05.942Z,36.42
2023-03-17T10:03:34.157Z,36.02
2023-03-17T10:06:14.832Z,36.07
2023-03-17T10:08:46.011Z,36.69
2023-03-17T10:11:17.079Z,36.04
2023-03-17T10:13:52.623Z,36.29
2023-03-17T10:16:23.169Z,35.92
2023-03-17T10:18:52.981Z,36.57
2023-03-17T10:21:24.218Z,36.02
2023-03-17T10:23:52.227Z,36.09
2023-03-17T10:26:32.771Z,35.40
2023-03-17T10:29:03.845Z,35.77
2023-03-17T10:31:34.599Z,36.06
2023-03-17T10:34:12.249Z,36.02
2023-03-17T10:36:42.409Z,36.41
2023-03-17T10:39:12.926Z,36.37
2023-03-17T10:41:41.478Z,35.83
2023-03-17T10:44:10.290Z,36.13
2023-03-17T10:46:40.065Z,36.38
2023-03-17T10:49:09.277Z,36.62
2023-03-17T10:51:38.353Z,36.31
2023-03-17T10:54:09.678Z,36.21
2023-03-17T10:56:37.832Z,35.16
2023-03-17T10:59:06.541Z,35.62
2023-03-17T11:01:38.271Z,35.69
2023-03-17T11:04:20.053Z,35.21
2023-03-17T11:06:51.396Z,34.61
2023-03-17T11:09:21.215Z,34.12
2023-03-17T11:11:49.478Z,34.80
2023-03-17T11:14:18.594Z,34.40
2023-03-17T11:16:53.291Z,34.81
2023-03-17T11:19:26.121Z,35.23
2023-03-17T11:21:57.164Z,35.72
2023-03-17T11:24:27.484Z,34.74
2023-03-17T11:27:00.062Z,34.66
2023-03-17T11:29:35.729Z,35.01
2023-03-17T11:32:10.734Z,34.84
2023-03-17T11:34:49.162Z,34.70
2023-03-17T11:37:22.562Z,35.21
2023-03-17T11:39:53.975Z,35.25
2023-03-17T11:42:22.329Z,34.42
2023-03-17T11:44:57.425Z,33.83
2023-03-17T11:47:32.067Z,34.37
2023-03-17T11:50:03.894Z,33.80
2023-03-17T11:52:36.907Z,34.31
2023-03-17T11:55:09.579Z,34.89
2023-03-17T11:57:42.985Z,35.37
2023-03-17T12:00:16.608Z,35.30
2023-03-17T12:02:47.070Z,34.96
2023-03-17T12:05:17.415Z,35.61
2023-03-17T12:07:46.728Z,35.29
2023-03-17T12:10:19.371Z,34.95
2023-03-17T12:12:50.945Z,34.51
2023-03-17T12:15:22.268Z,34.84
2023-03-17T12:17:52.447Z,34.62
2023-03-17T12:20:26.199Z,34.88
2023-03-17T12:22:57.152Z,34.72
2023-03-17T12:25:28.405Z,34.62
2023-03-17T12:28:00.169Z,34.94
2023-03-17T12:30:31.129Z,35.31
2023-03-17T12:33:10.764Z,35.55
2023-03-17T12:35:39.508Z,34.98
2023-03-17T12:38:09.889Z,34.73
2023-03-17T12:40:42.855Z,35.28
2023-03-17T12:43:30.141Z,35.20
2023-03-17T12:46:05.137Z,35.27
2023-03-17T12:48:39.556Z,34.81
2023-03-17T12:51:16.817Z,34.59
2023-03-17T12:53:45.533Z,34.94
2023-03-17T12:56:18.980Z,35.35
2023-03-17T12:58:47.443Z,35.00
2023-03-17T13:01:18.543Z,34.41
2023-03-17T13:03:47.883Z,34.67
2023-03-17T13:06:20.667Z,34.81
2023-03-17T13:08:50.325Z,34.85
2023-03-17T13:11:19.610Z,34.71
2023-03-17T13:13:55.796Z,34.65
2023-03-17T13:16:27.515Z,35.03
2023-03-17T13:19:08.058Z,34.90
2023-03-17T13:21:38.692Z,35.60
2023-03-17T13:24:20.932Z,35.47
2023-03-17T13:26:54.958Z,35.24
2023-03-17T13:29:39.594Z,35.73
2023-03-17T13:32:40.497Z,35.97
2023-03-17T13:35:22.839Z,36.05
2023-03-17T13:38:00.738Z,35.98
2023-03-17T13:40:32.802Z,35.63
2023-03-17T13:43:09.489Z,35.65
2023-03-17T13:45:38.194Z,35.55
2023-03-17T13:48:28.346Z,35.50
2023-03-17T13:50:58.535Z,36.11
2023-03-17T13:53:29.584Z,35.78
2023-03-17T13:56:11.872Z,35.81
2023-03-17T13:58:51.013Z,35.86
2023-03-17T14:01:18.400Z,36.17
2023-03-17T14:03:48.625Z,36.11
2023-03-17T14:06:17.020Z,36.55
2023-03-17T14:08:48.607Z,36.32
2023-03-17T14:11:27.934Z,36.46
2023-03-17T14:14:03.639Z,35.87
2023-03-17T14:16:32.841Z,36.47
2023-03-17T14:19:09.183Z,36.49
2023-03-17T14:21:36.955Z,36.49
2023-03-17T14:24:18.894Z,36.57
2023-03-17T14:26:48.117Z,36.87
2023-03-17T14:29:16.829Z,35.65
2023-03-17T14:31:47.550Z,35.94
2023-03-17T14:34:16.004Z,35.84
2023-03-17T14:36:43.616Z,36.10
2023-03-17T14:39:23.014Z,35.68
2023-03-17T14:42:00.559Z,35.93
2023-03-17T14:44:28.277Z,35.14
2023-03-17T14:47:02.771Z,34.80
2023-03-17T14:49:31.825Z,35.13
2023-03-17T14:51:59.179Z,35.30
2023-03-17T14:54:29.274Z,34.95
2023-03-17T14:57:01.926Z,35.41
2023-03-17T14:59:31.895Z,34.99
2023-03-17T15:01:59.791Z,35.23
2023-03-17T15:04:28.282Z,35.58
2023-03-17T15:06:56.838Z,36.06
2023-03-17T15:09:27.009Z,36.06
2023-03-17T15:11:57.170Z,35.77
2023-03-17T15:14:29.389Z,36.47
2023-03-17T15:16:57.331Z,36.35
2023-03-17T15:19:27.614Z,36.77
2023-03-17T15:21:59.695Z,36.99
2023-03-17T15:24:29.708Z,37.08
2023-03-17T15:27:05.808Z,36.74
2023-03-17T15:29:33.110Z,37.12
2023-03-17T15:32:02.885Z,37.19
2023-03-17T15:34:30.408Z,37.75
2023-03-17T15:36:57.988Z,37.98
2023-03-17T15:39:25.338Z,37.89
2023-03-17T15:41:52.581Z,37.96
2023-03-17T15:44:21.734Z,37.78
2023-03-17T15:46:49.079Z,38.23
2023-03-17T15:49:16.342Z,37.82
2023-03-17T15:51:43.673Z,38.18
2023-03-17T15:54:14.349Z,38.21
2023-03-17T15:56:43.105Z,38.48
2023-03-17T15:59:10.666Z,38.81
2023-03-17T16:01:39.699Z,39.05
2023-03-17T16:04:07.786Z,39.16
2023-03-17T16:06:35.560Z,38.53
2023-03-17T16:09:03.454Z,38.91
2023-03-17T16:11:32.144Z,38.94
2023-03-17T16:14:00.057Z,39.13
2023-03-17T16:16:31.549Z,39.44
2023-03-17T16:19:00.323Z,39.05
2023-03-17T16:21:28.533Z,39.45
2023-03-17T16:23:57.902Z,38.82
2023-03-17T16:26:25.263Z,39.43
2023-03-17T16:28:52.782Z,39.32
2023-03-17T16:31:25.466Z,39.30
2023-03-17T16:33:53.563Z,39.91
2023-03-17T16:36:23.352Z,39.59
2023-03-17T16:38:50.904Z,40.24
2023-03-17T16:41:20.353Z,40.69
2023-03-17T16:43:50.962Z,41.06
2023-03-17T16:46:18.948Z,41.08
2023-03-17T16:48:46.278Z,41.58
2023-03-17T16:51:13.548Z,41.58
2023-03-17T16:53:42.156Z,41.86
2023-03-17T16:56:13.816Z,42.03
2023-03-17T16:58:41.688Z,42.45
2023-03-17T17:01:12.735Z,42.60
2023-03-17T17:03:40.273Z,42.68
2023-03-17T17:06:08.704Z,43.14
2023-03-17T17:08:36.359Z,42.82
2023-03-17T17:11:08.154Z,43.29
2023-03-17T17:13:39.046Z,43.14
2023-03-17T17:16:14.486Z,43.26
2023-03-17T17:18:42.359Z,43.79
2023-03-17T17:21:12.862Z,43.85
2023-03-17T17:23:43.799Z,43.90
2023-03-17T17:26:12.926Z,44.34
2023-03-17T17:28:46.057Z,44.51
2023-03-17T17:31:19.465Z,44.21
2023-03-17T17:33:47.079Z,44.34
2023-03-17T17:36:16.369Z,44.64
2023-03-17T17:38:44.532Z,44.63
2023-03-17T17:41:14.368Z,44.39
2023-03-17T17:43:47.124Z,44.96
2023-03-17T17:46:17.608Z,44.75
2023-03-17T17:48:45.611Z,44.95
2023-03-17T17:51:16.376Z,45.22
2023-03-17T17:53:44.165Z,44.96
2023-03-17T17:56:20.203Z,45.35
2023-03-17T17:58:47.509Z,45.10
2023-03-17T18:01:19.584Z,45.39
2023-03-17T18:03:46.979Z,45.20
2023-03-17T18:06:14.285Z,45.54
2023-03-17T18:08:43.483Z,45.41
2023-03-17T18:11:10.973Z,45.45
2023-03-17T18:13:40.877Z,45.37
2023-03-17T18:16:09.797Z,45.29
2023-03-17T18:18:38.621Z,45.11
2023-03-17T18:21:06.165Z,45.33
2023-03-17T18:23:34.239Z,45.46
2023-03-17T18:26:02.359Z,45.24
2023-03-17T18:28:29.717Z,45.82
2023-03-17T18:31:03.591Z,45.37
2023-03-17T18:33:32.332Z,45.71
2023-03-17T18:36:00.158Z,45.73
2023-03-17T18:38:27.516Z,45.74
2023-03-17T18:40:55.447Z,45.65
2023-03-17T18:43:23.408Z,45.59
2023-03-17T18:45:51.106Z,45.47
2023-03-17T18:48:20.318Z,45.73
2023-03-17T18:50:48.177Z,45.52
2023-03-17T18:53:16.115Z,45.34
2023-03-17T18:55:43.377Z,45.86
2023-03-17T18:58:10.662Z,45.63
2023-03-17T19:00:37.961Z,45.95
2023-03-17T19:03:05.244Z,45.86
2023-03-17T19:05:35.590Z,45.91
2023-03-17T19:08:02.885Z,45.88
2023-03-17T19:10:31.353Z,46.14
2023-03-17T19:13:02.699Z,45.96
2023-03-17T19:15:30.283Z,45.71
2023-03-17T19:17:57.669Z,45.50
2023-03-17T19:20:24.944Z,45.33
2023-03-17T19:22:54.335Z,45.62
2023-03-17T19:25:21.940Z,45.48
2023-03-17T19:27:49.229Z,45.30
2023-03-17T19:30:17.823Z,45.43
2023-03-17T19:32:45.643Z,44.95
2023-03-17T19:35:13.031Z,45.05
2023-03-17T19:37:40.614Z,44.90
2023-03-17T19:40:11.228Z,44.49
2023-03-17T19:42:39.034Z,44.78
2023-03-17T19:45:08.021Z,44.68
2023-03-17T19:47:35.673Z,44.46
2023-03-17T19:50:03.229Z,44.75
2023-03-17T19:52:30.954Z,44.83
2023-03-17T19:54:58.739Z,44.66
2023-03-17T19:57:27.535Z,44.49
2023-03-17T19:59:54.839Z,44.52
2023-03-17T20:02:22.386Z,44.59
2023-03-17T20:04:50.350Z,44.54
2023-03-17T20:07:17.726Z,44.53
2023-03-17T20:09:47.896Z,44.36
2023-03-17T20:12:15.642Z,44.50
2023-03-17T20:14:44.344Z,44.33
2023-03-17T20:17:11.994Z,43.95
2023-03-17T20:19:39.469Z,44.00
2023-03-17T20:22:07.068Z,43.79
2023-03-17T20:24:34.750Z,43.68
2023-03-17T20:27:02.865Z,43.77
2023-03-17T20:29:31.015Z,43.67
2023-03-17T20:32:00.940Z,43.45
2023-03-17T20:34:28.816Z,43.36
2023-03-17T20:36:56.102Z,43.75
2023-03-17T20:39:26.872Z,43.52
2023-03-17T20:41:54.272Z,43.43
2023-03-17T20:44:22.388Z,43.25
2023-03-17T20:46:49.698Z,43.46
2023-03-17T20:49:18.391Z,43.59
2023-03-17T20:51:46.246Z,43.07
2023-03-17T20:54:13.613Z,42.87
2023-03-17T20:56:40.963Z,42.80
2023-03-17T20:59:09.801Z,42.54
2023-03-17T21:01:38.462Z,42.61
2023-03-17T21:04:08.574Z,42.51
2023-03-17T21:06:38.518Z,42.77
2023-03-17T21:09:06.121Z,42.52
2023-03-17T21:11:33.473Z,42.86
2023-03-17T21:14:03.290Z,42.60
2023-03-17T21:16:30.799Z,42.23
2023-03-17T21:18:58.092Z,42.58
2023-03-17T21:21:25.372Z,42.46
2023-03-17T21:23:54.396Z,42.36
2023-03-17T21:26:21.690Z,42.37
2023-03-17T21:28:49.377Z,42.10
2023-03-17T21:31:17.225Z,42.13
2023-03-17T21:33:45.250Z,41.76
2023-03-17T21:36:12.608Z,41.88
2023-03-17T21:38:39.941Z,41.64
2023-03-17T21:41:22.227Z,41.73
2023-03-17T21:43:49.652Z,41.71
2023-03-17T21:46:17.151Z,41.71
2023-03-17T21:48:44.902Z,41.81
2023-03-17T21:51:12.831Z,41.23
2023-03-17T21:53:40.094Z,41.68
2023-03-17T21:56:08.290Z,41.39
2023-03-17T21:58:36.931Z,41.41
2023-03-17T22:01:04.521Z,41.62
2023-03-17T22:03:32.163Z,41.40
2023-03-17T22:05:59.825Z,41.96
2023-03-17T22:08:27.099Z,41.57
2023-03-17T22:10:54.431Z,41.68
2023-03-17T22:13:21.703Z,41.69
2023-03-17T22:15:50.285Z,41.77
2023-03-17T22:18:17.873Z,41.80
2023-03-17T22:20:45.666Z,41.57
2023-03-17T22:23:12.986Z,41.73
2023-03-17T22:25:40.272Z,41.93
2023-03-17T22:28:08.542Z,41.69
2023-03-17T22:30:38.383Z,41.98
2023-03-17T22:33:07.546Z,41.89
2023-03-17T22:35:35.001Z,41.90
2023-03-17T22:38:02.317Z,41.72
2023-03-17T22:40:30.219Z,41.85
2023-03-17T22:42:57.717Z,42.09
2023-03-17T22:45:25.884Z,42.02
2023-03-17T22:47:54.128Z,41.87
2023-03-17T22:50:22.742Z,41.61
2023-03-17T22:52:50.077Z,41.62
2023-03-17T22:55:17.354Z,41.76
2023-03-17T22:57:44.611Z,41.65
2023-03-17T23:00:16.462Z,42.02
2023-03-17T23:02:44.495Z,41.70
2023-03-17T23:05:13.318Z,41.88
2023-03-17T23:07:50.251Z,41.91
2023-03-17T23:10:22.017Z,41.51
2023-03-17T23:12:49.518Z,41.77
2023-03-17T23:15:17.872Z,41.91
2023-03-17T23:17:45.253Z,41.88
2023-03-17T23:20:13.593Z,41.83
2023-03-17T23:22:42.192Z,42.11
2023-03-17T23:25:10.099Z,42.37
2023-03-17T23:27:37.351Z,42.31
2023-03-17T23:30:05.712Z,42.12
2023-03-17T23:32:34.070Z,42.26
2023-03-17T23:35:01.694Z,42.31
2023-03-17T23:37:28.960Z,42.60
2023-03-17T23:39:57.544Z,42.51
2023-03-17T23:42:24.889Z,42.28
2023-03-17T23:44:52.192Z,42.61
2023-03-17T23:47:20.486Z,42.56
2023-03-17T23:49:48.186Z,42.68
2023-03-17T23:52:15.774Z,42.82
2023-03-17T23:54:43.943Z,42.62
2023-03-17T23:57:12.994Z,42.42
2023-03-17T23:59:40.373Z,42.47
